createdAt,value
2023-04-26T00:01:00.066Z,1000.41
2023-04-26T00:06:04.236Z,1000.34
2023-04-26T00:11:08.417Z,1000.18
2023-04-26T00:16:12.641Z,1000.00
2023-04-26T00:21:16.772Z,999.84
2023-04-26T00:26:21.008Z,999.75
2023-04-26T00:31:25.150Z,999.69
2023-04-26T00:41:33.418Z,999.44
2023-04-26T00:46:37.579Z,999.48
2023-04-26T00:51:41.763Z,999.49
2023-04-26T00:56:44.021Z,999.39
2023-04-26T01:01:48.181Z,999.32
2023-04-26T01:06:52.365Z,999.44
2023-04-26T01:11:56.510Z,999.37
2023-04-26T01:17:00.741Z,999.34
2023-04-26T01:22:04.905Z,999.32
2023-04-26T01:27:09.053Z,999.40
2023-04-26T01:32:13.181Z,999.51
2023-04-26T01:37:17.327Z,999.54
2023-04-26T01:42:21.512Z,999.54
2023-04-26T01:47:25.696Z,999.50
2023-04-26T01:52:29.845Z,999.43
2023-04-26T01:57:34.027Z,999.46
2023-04-26T02:02:38.287Z,999.47
2023-04-26T02:07:42.340Z,999.43
2023-04-26T02:12:46.467Z,999.50
2023-04-26T02:17:50.671Z,999.49
2023-04-26T02:22:54.830Z,999.50
2023-04-26T02:27:58.981Z,999.47
2023-04-26T02:33:03.209Z,999.47
2023-04-26T02:38:07.422Z,999.47
2023-04-26T02:43:09.642Z,999.42
2023-04-26T02:48:13.786Z,999.33
2023-04-26T02:53:17.907Z,999.38
2023-04-26T02:58:20.217Z,999.40
2023-04-26T03:03:24.558Z,999.33
2023-04-26T03:08:28.556Z,999.32
2023-04-26T03:13:32.679Z,999.27
2023-04-26T03:18:36.877Z,999.18
2023-04-26T03:23:41.043Z,999.19
2023-04-26T03:28:45.236Z,999.16
2023-04-26T03:33:49.366Z,999.13
2023-04-26T03:38:53.785Z,999.06
2023-04-26T03:43:57.707Z,999.01
2023-04-26T03:49:01.894Z,998.94
2023-04-26T03:54:06.083Z,998.79
2023-04-26T03:59:10.213Z,998.88
2023-04-26T04:04:14.622Z,998.82
2023-04-26T04:09:18.547Z,998.79
2023-04-26T04:14:22.735Z,998.74
2023-04-26T04:19:26.894Z,998.73
2023-04-26T04:24:32.302Z,998.71
2023-04-26T04:29:35.336Z,998.71
2023-04-26T04:34:39.387Z,998.67
2023-04-26T04:39:43.548Z,998.69
2023-04-26T04:44:45.841Z,998.60
2023-04-26T04:49:49.969Z,998.50
2023-04-26T04:54:54.116Z,998.46
2023-04-26T04:59:56.401Z,998.37
2023-04-26T05:05:00.636Z,998.23
2023-04-26T05:10:04.749Z,998.21
2023-04-26T05:15:08.903Z,998.06
2023-04-26T05:20:13.080Z,998.05
2023-04-26T05:25:17.526Z,998.00
2023-04-26T05:30:21.412Z,997.94
2023-04-26T05:35:25.548Z,997.88
2023-04-26T05:40:29.745Z,997.76
2023-04-26T05:45:33.912Z,997.67
2023-04-26T05:50:39.998Z,997.68
2023-04-26T05:55:42.248Z,997.50
2023-04-26T06:00:46.436Z,997.28
2023-04-26T06:05:50.672Z,997.14
2023-04-26T06:10:54.721Z,997.08
2023-04-26T06:15:58.969Z,996.94
2023-04-26T06:21:03.087Z,996.76
2023-04-26T06:26:07.240Z,996.76
2023-04-26T06:31:11.425Z,996.76
2023-04-26T06:36:15.684Z,996.75
2023-04-26T06:41:19.705Z,996.48
2023-04-26T06:46:22.053Z,996.43
2023-04-26T06:51:26.184Z,996.26
2023-04-26T06:56:28.462Z,996.20
2023-04-26T07:01:32.611Z,996.17
2023-04-26T07:06:36.803Z,996.16
2023-04-26T07:11:40.935Z,996.54
2023-04-26T07:16:46.382Z,996.95
2023-04-26T07:21:49.277Z,997.43
2023-04-26T07:26:53.434Z,997.86
2023-04-26T07:31:57.579Z,997.64
2023-04-26T07:37:01.765Z,997.47
2023-04-26T07:42:05.938Z,997.15
2023-04-26T07:47:10.070Z,996.83
2023-04-26T07:52:14.250Z,996.33
2023-04-26T07:57:18.371Z,996.12
2023-04-26T08:02:32.941Z,996.03
2023-04-26T08:07:26.764Z,995.90
2023-04-26T08:12:30.854Z,996.00
2023-04-26T08:17:35.141Z,996.14
2023-04-26T08:22:39.200Z,996.19
2023-04-26T08:27:43.374Z,996.31
2023-04-26T08:32:47.548Z,996.36
2023-04-26T08:42:55.824Z,996.31
2023-04-26T08:47:58.190Z,996.60
2023-04-26T08:53:02.279Z,996.84
2023-04-26T08:58:06.530Z,997.01
2023-04-26T09:08:12.908Z,997.70
2023-04-26T09:13:15.144Z,997.64
2023-04-26T09:18:19.343Z,998.17
2023-04-26T09:23:23.468Z,998.14
2023-04-26T09:28:27.658Z,998.76
2023-04-26T09:33:32.170Z,998.38
2023-04-26T09:38:35.943Z,998.30
2023-04-26T09:43:40.126Z,998.32
2023-04-26T09:48:45.190Z,998.63
2023-04-26T09:53:48.448Z,998.87
2023-04-26T09:58:52.859Z,998.61
2023-04-26T10:03:56.955Z,997.82
2023-04-26T10:09:00.912Z,997.54
2023-04-26T10:14:05.113Z,997.77
2023-04-26T10:19:09.257Z,997.65
2023-04-26T10:24:11.528Z,998.02
2023-04-26T10:29:15.696Z,998.46
2023-04-26T10:34:19.838Z,999.79
2023-04-26T10:39:24.054Z,1002.23
2023-04-26T10:44:28.168Z,1004.78
2023-04-26T10:49:32.343Z,1007.28
2023-04-26T10:54:36.480Z,1007.70
2023-04-26T10:59:51.182Z,1007.81
2023-04-26T11:04:42.974Z,1007.60
2023-04-26T11:09:45.187Z,1007.48
2023-04-26T11:14:49.377Z,1007.39
2023-04-26T11:19:53.517Z,1007.31
2023-04-26T11:24:57.668Z,1007.49
2023-04-26T11:30:01.868Z,1007.48
2023-04-26T11:35:06.008Z,1007.64
2023-04-26T11:40:10.185Z,1007.76
2023-04-26T11:45:14.401Z,1007.63
2023-04-26T11:50:18.538Z,1007.70
2023-04-26T12:00:26.804Z,1007.46
2023-04-26T12:05:31.019Z,1007.84
2023-04-26T12:10:35.109Z,1008.18
2023-04-26T12:15:39.316Z,1008.37
2023-04-26T12:20:43.498Z,1008.35
2023-04-26T12:25:47.619Z,1008.37
2023-04-26T12:30:51.815Z,1008.34
2023-04-26T12:35:55.937Z,1008.48
2023-04-26T12:41:00.153Z,1008.40
2023-04-26T12:46:04.333Z,1008.37
2023-04-26T12:51:08.506Z,1008.30
2023-04-26T12:56:12.576Z,1008.48
2023-04-26T13:01:14.916Z,1008.06
2023-04-26T13:06:19.075Z,1008.49
2023-04-26T13:11:21.325Z,1008.55
2023-04-26T13:16:25.491Z,1008.55
2023-04-26T13:21:29.616Z,1008.57
2023-04-26T13:26:33.781Z,1008.52
2023-04-26T13:31:38.024Z,1008.43
2023-04-26T13:36:42.107Z,1008.81
2023-04-26T13:41:46.259Z,1008.80
2023-04-26T13:46:50.405Z,1008.88
2023-04-26T13:51:54.616Z,1008.96
2023-04-26T13:56:58.733Z,1008.92
2023-04-26T14:02:02.942Z,1008.98
2023-04-26T14:07:07.070Z,1008.87
2023-04-26T14:12:11.230Z,1008.88
2023-04-26T14:17:15.433Z,1008.91
2023-04-26T14:22:19.574Z,1008.90
2023-04-26T14:32:27.924Z,1009.16
2023-04-26T14:37:32.030Z,1008.97
2023-04-26T14:42:36.228Z,1008.97
2023-04-26T14:47:40.412Z,1008.90
2023-04-26T14:52:44.551Z,1009.00
2023-04-26T14:57:48.677Z,1009.02
2023-04-26T15:02:51.155Z,1008.96
2023-04-26T15:07:55.133Z,1008.97
2023-04-26T15:12:59.272Z,1008.88
2023-04-26T15:18:01.618Z,1008.84
2023-04-26T15:23:05.719Z,1008.63
2023-04-26T15:28:09.854Z,1008.69
2023-04-26T15:33:14.012Z,1008.69
2023-04-26T15:38:18.198Z,1008.84
2023-04-26T15:43:22.332Z,1008.78
2023-04-26T15:48:26.508Z,1008.79
2023-04-26T15:53:30.677Z,1008.83
2023-04-26T15:58:38.114Z,1008.83
2023-04-26T16:03:39.150Z,1008.86
2023-04-26T16:08:43.153Z,1008.88
2023-04-26T16:13:47.275Z,1008.78
2023-04-26T16:18:51.442Z,1008.74
2023-04-26T16:23:55.598Z,1008.73
2023-04-26T16:28:59.759Z,1008.70
2023-04-26T16:34:03.927Z,1008.66
2023-04-26T16:39:08.128Z,1008.56
2023-04-26T16:44:12.282Z,1008.64
2023-04-26T16:49:16.419Z,1008.64
2023-04-26T16:54:20.587Z,1008.51
2023-04-26T16:59:24.734Z,1008.65
2023-04-26T17:04:27.181Z,1008.82
2023-04-26T17:09:31.156Z,1008.67
2023-04-26T17:14:33.428Z,1008.73
2023-04-26T17:19:35.713Z,1008.64
2023-04-26T17:24:39.882Z,1008.72
2023-04-26T17:29:44.044Z,1008.62
2023-04-26T17:34:48.182Z,1008.53
2023-04-26T17:39:52.378Z,1008.44
2023-04-26T17:44:56.571Z,1008.52
2023-04-26T17:50:00.721Z,1008.63
2023-04-26T17:55:04.867Z,1008.63
2023-04-26T18:00:09.022Z,1008.71
2023-04-26T18:05:13.168Z,1008.57
2023-04-26T18:10:17.346Z,1008.57
2023-04-26T18:15:21.477Z,1008.64
2023-04-26T18:20:25.674Z,1008.60
2023-04-26T18:25:29.827Z,1008.81
2023-04-26T18:30:33.975Z,1008.49
2023-04-26T18:35:38.175Z,1008.26
2023-04-26T18:40:42.312Z,1007.81
2023-04-26T18:45:46.474Z,1005.57
2023-04-26T18:50:50.623Z,1002.25
2023-04-26T18:55:54.798Z,1000.11
2023-04-26T19:00:58.950Z,998.79
2023-04-26T19:06:01.228Z,998.03
2023-04-26T19:11:05.404Z,997.28
2023-04-26T19:16:07.772Z,997.06
2023-04-26T19:21:11.824Z,997.08
2023-04-26T19:31:20.261Z,996.93
2023-04-26T19:36:24.333Z,996.92
2023-04-26T19:41:28.463Z,996.90
2023-04-26T19:46:32.674Z,996.79
2023-04-26T19:51:36.799Z,997.06
2023-04-26T19:56:40.944Z,996.91
2023-04-26T20:01:45.208Z,996.80
2023-04-26T20:06:49.277Z,996.85
2023-04-26T20:11:53.440Z,996.70
2023-04-26T20:16:57.765Z,996.46
2023-04-26T20:22:01.761Z,996.49
2023-04-26T20:27:05.939Z,996.54
2023-04-26T20:32:10.126Z,996.41
2023-04-26T20:37:14.281Z,996.12
2023-04-26T20:42:18.386Z,996.11
2023-04-26T20:47:22.638Z,996.12
2023-04-26T20:52:26.758Z,996.18
2023-04-26T20:57:30.917Z,996.13
2023-04-26T21:02:35.301Z,996.19
2023-04-26T21:07:37.356Z,996.29
2023-04-26T21:12:41.539Z,996.43
2023-04-26T21:17:43.820Z,996.41
2023-04-26T21:22:47.943Z,996.45
2023-04-26T21:27:52.128Z,996.43
2023-04-26T21:32:56.384Z,996.50
2023-04-26T21:38:00.476Z,996.42
2023-04-26T21:43:05.496Z,996.47
2023-04-26T21:48:08.829Z,996.57
2023-04-26T21:53:12.952Z,996.50
2023-04-26T21:58:17.091Z,996.59
2023-04-26T22:03:21.363Z,996.62
2023-04-26T22:08:25.426Z,996.59
2023-04-26T22:13:29.557Z,996.47
2023-04-26T22:18:33.746Z,996.50
2023-04-26T22:23:37.902Z,996.56
2023-04-26T22:28:42.167Z,996.50
2023-04-26T22:33:46.254Z,996.53
2023-04-26T22:38:50.401Z,996.74
2023-04-26T22:43:54.571Z,996.87
2023-04-26T22:48:58.748Z,996.95
2023-04-26T22:54:02.881Z,997.04
2023-04-26T22:59:07.098Z,997.24
2023-04-26T23:04:09.371Z,997.40
2023-04-26T23:09:13.783Z,997.62
2023-04-26T23:14:17.647Z,997.66
2023-04-26T23:19:21.830Z,997.90
2023-04-26T23:24:25.986Z,998.07
2023-04-26T23:29:30.175Z,998.32
2023-04-26T23:34:34.314Z,998.58
2023-04-26T23:39:38.468Z,998.86
2023-04-26T23:44:42.649Z,998.92
2023-04-26T23:49:46.776Z,999.13
2023-04-26T23:54:50.987Z,999.30
2023-04-26T23:59:55.142Z,999.56
